createdAt,value
2022-10-25T00:01:00.908Z,84.16
2022-10-25T00:03:27.854Z,83.90
2022-10-25T00:05:54.802Z,83.37
2022-10-25T00:08:21.755Z,82.64
2022-10-25T00:10:48.725Z,82.68
2022-10-25T00:13:15.678Z,82.92
2022-10-25T00:15:43.988Z,83.26
2022-10-25T00:18:10.912Z,82.99
2022-10-25T00:20:38.621Z,82.85
2022-10-25T00:23:05.633Z,82.63
2022-10-25T00:25:32.611Z,82.15
2022-10-25T00:27:59.551Z,81.99
2022-10-25T00:30:26.489Z,82.25
2022-10-25T00:32:53.893Z,82.82
2022-10-25T00:35:20.991Z,83.60
2022-10-25T00:37:47.934Z,83.09
2022-10-25T00:40:14.954Z,83.19
2022-10-25T00:42:42.056Z,82.58
2022-10-25T00:45:27.072Z,82.64
2022-10-25T00:48:04.458Z,82.60
2022-10-25T00:50:43.172Z,82.61
2022-10-25T00:53:18.488Z,82.54
2022-10-25T00:55:49.021Z,82.32
2022-10-25T00:58:20.690Z,82.69
2022-10-25T01:00:49.150Z,82.64
2022-10-25T01:03:18.326Z,82.71
2022-10-25T01:05:45.489Z,83.69
2022-10-25T01:08:13.338Z,84.30
2022-10-25T01:10:40.498Z,83.78
2022-10-25T01:13:07.735Z,82.89
2022-10-25T01:15:46.990Z,83.44
2022-10-25T01:18:25.799Z,83.25
2022-10-25T01:21:16.309Z,83.03
2022-10-25T01:24:04.667Z,83.00
2022-10-25T01:26:46.666Z,82.66
2022-10-25T01:29:22.703Z,82.88
2022-10-25T01:31:54.408Z,83.12
2022-10-25T01:34:25.587Z,83.16
2022-10-25T01:37:03.331Z,82.46
2022-10-25T01:39:40.387Z,82.98
2022-10-25T01:42:25.425Z,83.29
2022-10-25T01:45:02.286Z,82.51
2022-10-25T01:47:29.150Z,82.99
2022-10-25T01:50:11.451Z,83.00
2022-10-25T01:52:38.572Z,83.26
2022-10-25T01:55:11.012Z,82.88
2022-10-25T01:57:46.235Z,83.19
2022-10-25T02:00:20.112Z,82.87
2022-10-25T02:03:14.851Z,83.03
2022-10-25T02:05:44.841Z,82.94
2022-10-25T02:08:29.340Z,83.50
2022-10-25T02:11:20.649Z,83.78
2022-10-25T02:14:11.895Z,83.88
2022-10-25T02:17:05.066Z,83.60
2022-10-25T02:19:40.235Z,82.79
2022-10-25T02:22:10.647Z,83.10
2022-10-25T02:24:40.813Z,82.64
2022-10-25T02:27:11.235Z,83.21
2022-10-25T02:29:40.172Z,82.87
2022-10-25T02:32:07.315Z,83.34
2022-10-25T02:34:34.796Z,83.03
2022-10-25T02:37:01.946Z,84.56
2022-10-25T02:39:31.513Z,84.50
2022-10-25T02:42:02.744Z,83.55
2022-10-25T02:44:29.615Z,83.48
2022-10-25T02:46:56.617Z,83.03
2022-10-25T02:49:23.563Z,85.26
2022-10-25T02:54:18.481Z,86.23
2022-10-25T02:56:45.426Z,85.41
2022-10-25T02:59:15.924Z,86.94
2022-10-25T03:01:42.932Z,86.68
2022-10-25T03:04:09.892Z,86.67
2022-10-25T03:06:36.894Z,86.44
2022-10-25T03:09:04.519Z,86.92
2022-10-25T03:11:31.466Z,85.96
2022-10-25T03:13:58.410Z,85.27
2022-10-25T03:16:25.473Z,85.08
2022-10-25T03:18:52.367Z,85.13
2022-10-25T03:21:19.314Z,85.30
2022-10-25T03:23:46.443Z,85.19
2022-10-25T03:26:13.425Z,85.09
2022-10-25T03:28:40.334Z,84.70
2022-10-25T03:31:13.473Z,84.54
2022-10-25T03:33:41.150Z,84.40
2022-10-25T03:36:08.856Z,84.14
2022-10-25T03:38:35.825Z,83.76
2022-10-25T03:41:02.846Z,83.58
2022-10-25T03:43:29.843Z,83.90
2022-10-25T03:45:56.917Z,83.81
2022-10-25T03:48:23.931Z,83.61
2022-10-25T03:50:50.867Z,83.75
2022-10-25T03:53:17.719Z,84.33
2022-10-25T03:55:44.664Z,83.87
2022-10-25T03:58:11.651Z,84.80
2022-10-25T04:00:39.064Z,85.15
2022-10-25T04:05:33.891Z,84.82
2022-10-25T04:08:00.863Z,84.71
2022-10-25T04:10:28.096Z,84.52
2022-10-25T04:12:55.399Z,84.59
2022-10-25T04:15:23.637Z,85.13
2022-10-25T04:17:54.086Z,85.02
2022-10-25T04:20:21.821Z,84.84
2022-10-25T04:22:57.006Z,85.10
2022-10-25T04:25:25.431Z,84.91
2022-10-25T04:27:52.352Z,85.07
2022-10-25T04:30:19.570Z,85.20
2022-10-25T04:32:46.852Z,85.37
2022-10-25T04:35:14.247Z,84.59
2022-10-25T04:37:41.271Z,84.40
2022-10-25T04:40:08.982Z,84.58
2022-10-25T04:42:36.162Z,84.26
2022-10-25T04:45:03.240Z,84.36
2022-10-25T04:47:34.147Z,84.54
2022-10-25T04:50:01.323Z,84.24
2022-10-25T04:52:32.294Z,84.43
2022-10-25T04:55:00.488Z,83.89
2022-10-25T04:57:27.471Z,83.84
2022-10-25T04:59:54.540Z,84.06
2022-10-25T05:02:21.437Z,84.17
2022-10-25T05:04:48.345Z,85.07
2022-10-25T05:07:18.985Z,85.11
2022-10-25T05:09:47.500Z,85.58
2022-10-25T05:12:15.388Z,85.71
2022-10-25T05:14:42.404Z,84.75
2022-10-25T05:17:09.363Z,85.87
2022-10-25T05:19:36.313Z,85.38
2022-10-25T05:22:03.519Z,85.36
2022-10-25T05:24:30.646Z,85.10
2022-10-25T05:26:57.562Z,84.89
2022-10-25T05:29:24.611Z,84.97
2022-10-25T05:31:51.650Z,85.41
2022-10-25T05:34:18.711Z,84.51
2022-10-25T05:36:45.717Z,83.96
2022-10-25T05:39:12.610Z,84.34
2022-10-25T05:41:39.661Z,84.71
2022-10-25T05:44:06.846Z,85.19
2022-10-25T05:46:34.034Z,84.97
2022-10-25T05:49:01.262Z,84.85
2022-10-25T05:51:36.774Z,84.93
2022-10-25T05:54:10.087Z,84.87
2022-10-25T05:56:37.809Z,84.58
2022-10-25T05:59:10.115Z,85.10
2022-10-25T06:01:47.396Z,85.17
2022-10-25T06:04:15.574Z,85.50
2022-10-25T06:06:44.307Z,85.09
2022-10-25T06:09:11.810Z,84.84
2022-10-25T06:11:39.983Z,85.05
2022-10-25T06:14:07.556Z,85.07
2022-10-25T06:16:34.574Z,84.80
2022-10-25T06:19:01.568Z,84.87
2022-10-25T06:21:30.255Z,85.69
2022-10-25T06:23:59.432Z,86.12
2022-10-25T06:26:28.878Z,85.24
2022-10-25T06:29:01.483Z,85.41
2022-10-25T06:31:29.855Z,85.43
2022-10-25T06:33:56.994Z,85.40
2022-10-25T06:36:27.270Z,85.76
2022-10-25T06:38:54.970Z,84.76
2022-10-25T06:41:24.987Z,85.08
2022-10-25T06:43:52.297Z,85.68
2022-10-25T06:46:28.580Z,85.44
2022-10-25T06:48:57.227Z,85.71
2022-10-25T06:51:26.043Z,85.43
2022-10-25T06:53:57.869Z,85.71
2022-10-25T06:56:26.044Z,85.02
2022-10-25T06:58:53.241Z,85.46
2022-10-25T07:01:22.341Z,84.69
2022-10-25T07:03:51.240Z,85.27
2022-10-25T07:06:22.853Z,84.97
2022-10-25T07:08:53.855Z,84.77
2022-10-25T07:11:21.703Z,84.79
2022-10-25T07:13:48.732Z,83.94
2022-10-25T07:16:18.100Z,84.53
2022-10-25T07:18:45.580Z,83.50
2022-10-25T07:21:22.952Z,83.58
2022-10-25T07:23:51.393Z,84.01
2022-10-25T07:26:21.781Z,83.69
2022-10-25T07:28:52.437Z,84.17
2022-10-25T07:31:25.308Z,83.75
2022-10-25T07:33:53.974Z,83.92
2022-10-25T07:36:21.331Z,84.35
2022-10-25T07:38:48.483Z,84.67
2022-10-25T07:41:15.770Z,84.29
2022-10-25T07:43:42.708Z,83.87
2022-10-25T07:46:09.768Z,83.77
2022-10-25T07:48:37.745Z,83.84
2022-10-25T07:51:13.945Z,83.32
2022-10-25T07:53:41.094Z,83.91
2022-10-25T07:56:13.089Z,83.58
2022-10-25T07:58:41.017Z,83.67
2022-10-25T08:01:10.162Z,83.67
2022-10-25T08:03:37.807Z,83.24
2022-10-25T08:06:05.281Z,82.85
2022-10-25T08:08:32.701Z,82.65
2022-10-25T08:11:00.028Z,82.09
2022-10-25T08:13:26.930Z,82.26
2022-10-25T08:15:55.867Z,81.20
2022-10-25T08:18:24.021Z,80.78
2022-10-25T08:21:02.343Z,80.09
2022-10-25T08:23:32.092Z,80.13
2022-10-25T08:25:59.723Z,80.70
2022-10-25T08:28:26.917Z,80.45
2022-10-25T08:30:55.761Z,80.44
2022-10-25T08:33:23.758Z,80.30
2022-10-25T08:35:50.922Z,80.99
2022-10-25T08:38:18.666Z,80.64
2022-10-25T08:41:14.755Z,81.03
2022-10-25T08:44:09.923Z,80.86
2022-10-25T08:46:48.915Z,80.87
2022-10-25T08:49:45.467Z,80.59
2022-10-25T08:52:28.821Z,80.56
2022-10-25T08:55:01.753Z,80.58
2022-10-25T08:57:34.826Z,80.55
2022-10-25T09:00:07.763Z,80.47
2022-10-25T09:02:34.837Z,80.46
2022-10-25T09:05:01.927Z,79.66
2022-10-25T09:07:42.740Z,79.54
2022-10-25T09:10:24.594Z,78.61
2022-10-25T09:13:15.001Z,79.43
2022-10-25T09:15:43.144Z,79.57
2022-10-25T09:18:23.699Z,79.38
2022-10-25T09:20:52.605Z,79.47
2022-10-25T09:23:31.591Z,79.75
2022-10-25T09:26:15.719Z,79.01
2022-10-25T09:28:54.785Z,79.11
2022-10-25T09:31:26.109Z,79.05
2022-10-25T09:34:11.893Z,79.33
2022-10-25T09:36:46.512Z,79.76
2022-10-25T09:39:26.030Z,79.83
2022-10-25T09:41:57.482Z,79.67
2022-10-25T09:44:30.640Z,79.26
2022-10-25T09:47:03.639Z,79.52
2022-10-25T09:49:49.535Z,79.77
2022-10-25T09:52:40.881Z,78.90
2022-10-25T09:55:26.638Z,77.95
2022-10-25T09:57:54.544Z,78.13
2022-10-25T10:00:24.699Z,78.21
2022-10-25T10:02:51.864Z,78.60
2022-10-25T10:05:21.598Z,78.75
2022-10-25T10:07:50.410Z,78.62
2022-10-25T10:10:25.527Z,79.38
2022-10-25T10:13:29.385Z,78.96
2022-10-25T10:16:16.310Z,78.25
2022-10-25T10:18:44.755Z,78.70
2022-10-25T10:21:11.661Z,79.05
2022-10-25T10:23:45.121Z,79.46
2022-10-25T10:26:21.897Z,79.83
2022-10-25T10:28:51.517Z,79.91
2022-10-25T10:31:20.533Z,80.02
2022-10-25T10:33:49.669Z,79.51
2022-10-25T10:36:24.286Z,79.63
2022-10-25T10:38:51.866Z,78.95
2022-10-25T10:41:28.018Z,78.75
2022-10-25T10:44:14.487Z,79.06
2022-10-25T10:46:48.048Z,78.44
2022-10-25T10:49:16.416Z,78.69
2022-10-25T10:51:45.997Z,78.39
2022-10-25T10:54:14.073Z,78.76
2022-10-25T10:56:41.116Z,78.71
2022-10-25T10:59:25.909Z,78.88
2022-10-25T11:01:53.260Z,78.13
2022-10-25T11:04:21.860Z,78.08
2022-10-25T11:06:49.897Z,77.90
2022-10-25T11:09:23.943Z,77.92
2022-10-25T11:12:26.567Z,77.06
2022-10-25T11:14:56.052Z,77.15
2022-10-25T11:17:30.300Z,75.76
2022-10-25T11:20:06.227Z,75.30
2022-10-25T11:22:48.326Z,75.62
2022-10-25T11:25:36.143Z,75.53
2022-10-25T11:28:17.046Z,74.47
2022-10-25T11:31:05.846Z,73.29
2022-10-25T11:34:05.598Z,74.03
2022-10-25T11:36:37.751Z,72.02
2022-10-25T11:39:19.827Z,72.83
2022-10-25T11:41:53.855Z,70.65
2022-10-25T11:45:04.871Z,70.68
2022-10-25T11:48:01.221Z,69.95
2022-10-25T11:50:55.156Z,71.04
2022-10-25T11:53:47.427Z,70.72
2022-10-25T11:57:02.100Z,68.50
2022-10-25T12:00:12.532Z,66.81
2022-10-25T12:02:58.129Z,66.43
2022-10-25T12:05:37.169Z,66.13
2022-10-25T12:08:07.069Z,68.18
2022-10-25T12:10:43.296Z,66.14
2022-10-25T12:13:34.485Z,67.06
2022-10-25T12:16:05.219Z,66.41
2022-10-25T12:18:43.935Z,66.16
2022-10-25T12:21:16.701Z,65.45
2022-10-25T12:23:47.191Z,65.59
2022-10-25T12:26:25.744Z,65.71
2022-10-25T12:28:53.211Z,65.78
2022-10-25T12:31:22.735Z,66.59
2022-10-25T12:33:59.053Z,66.08
2022-10-25T12:36:36.689Z,66.93
2022-10-25T12:39:13.714Z,67.40
2022-10-25T12:41:45.590Z,66.55
2022-10-25T12:44:18.145Z,67.07
2022-10-25T12:46:53.811Z,67.14
2022-10-25T12:49:39.642Z,67.34
2022-10-25T12:52:31.766Z,67.31
2022-10-25T12:55:23.183Z,66.87
2022-10-25T12:58:08.746Z,66.68
2022-10-25T13:00:56.773Z,66.68
2022-10-25T13:03:29.321Z,67.27
2022-10-25T13:06:11.621Z,67.62
2022-10-25T13:08:40.534Z,67.87
2022-10-25T13:11:09.635Z,67.81
2022-10-25T13:13:40.501Z,67.52
2022-10-25T13:16:11.289Z,68.20
2022-10-25T13:18:43.203Z,68.17
2022-10-25T13:21:11.850Z,68.60
2022-10-25T13:23:51.844Z,68.35
2022-10-25T13:26:21.368Z,67.87
2022-10-25T13:28:53.851Z,69.11
2022-10-25T13:31:35.874Z,68.44
2022-10-25T13:34:15.159Z,68.25
2022-10-25T13:36:59.366Z,68.44
2022-10-25T13:39:43.146Z,68.40
2022-10-25T13:42:16.371Z,68.89
2022-10-25T13:45:02.358Z,68.46
2022-10-25T13:47:38.270Z,68.73
2022-10-25T13:50:30.181Z,68.48
2022-10-25T13:53:03.090Z,68.50
2022-10-25T13:55:35.821Z,69.11
2022-10-25T13:58:23.207Z,68.38
2022-10-25T14:00:53.691Z,69.17
2022-10-25T14:03:35.213Z,69.01
2022-10-25T14:06:02.134Z,69.33
2022-10-25T14:08:43.737Z,68.82
2022-10-25T14:11:27.138Z,69.09
2022-10-25T14:14:02.215Z,69.11
2022-10-25T14:16:33.175Z,69.09
2022-10-25T14:19:06.580Z,68.44
2022-10-25T14:21:34.280Z,69.20
2022-10-25T14:24:07.832Z,69.61
2022-10-25T14:26:34.796Z,68.75
2022-10-25T14:29:17.866Z,69.05
2022-10-25T14:31:45.687Z,69.04
2022-10-25T14:34:24.315Z,68.53
2022-10-25T14:36:57.677Z,68.72
2022-10-25T14:39:28.399Z,69.31
2022-10-25T14:41:57.063Z,68.99
2022-10-25T14:44:32.862Z,69.68
2022-10-25T14:47:00.747Z,69.75
2022-10-25T14:49:29.260Z,69.95
2022-10-25T14:52:03.318Z,70.25
2022-10-25T14:54:34.236Z,70.17
2022-10-25T14:57:05.185Z,70.17
2022-10-25T14:59:48.701Z,70.92
2022-10-25T15:02:20.592Z,71.02
2022-10-25T15:04:50.275Z,70.93
2022-10-25T15:07:22.805Z,71.56
2022-10-25T15:09:51.666Z,71.99
2022-10-25T15:12:22.814Z,72.25
2022-10-25T15:14:54.761Z,72.11
2022-10-25T15:17:31.249Z,72.34
2022-10-25T15:20:07.117Z,71.97
2022-10-25T15:22:39.794Z,72.34
2022-10-25T15:25:24.835Z,72.71
2022-10-25T15:27:57.138Z,72.72
2022-10-25T15:30:38.190Z,73.57
2022-10-25T15:33:09.807Z,73.09
2022-10-25T15:35:47.100Z,73.19
2022-10-25T15:38:14.276Z,73.85
2022-10-25T15:40:42.368Z,73.34
2022-10-25T15:43:09.294Z,73.98
2022-10-25T15:45:38.141Z,73.45
2022-10-25T15:48:14.546Z,74.37
2022-10-25T15:50:47.976Z,74.07
2022-10-25T15:53:14.926Z,74.62
2022-10-25T15:55:42.738Z,74.82
2022-10-25T15:58:10.800Z,74.71
2022-10-25T16:00:38.106Z,75.13
2022-10-25T16:03:06.302Z,75.48
2022-10-25T16:05:37.004Z,75.48
2022-10-25T16:08:04.886Z,75.80
2022-10-25T16:10:32.470Z,76.04
2022-10-25T16:13:04.956Z,75.69
2022-10-25T16:15:32.869Z,75.90
2022-10-25T16:17:59.758Z,76.05
2022-10-25T16:20:29.439Z,76.15
2022-10-25T16:22:57.428Z,76.14
2022-10-25T16:25:30.517Z,76.10
2022-10-25T16:28:01.400Z,75.78
2022-10-25T16:30:34.170Z,75.86
2022-10-25T16:33:01.326Z,76.33
2022-10-25T16:35:28.252Z,76.06
2022-10-25T16:37:55.182Z,75.86
2022-10-25T16:40:22.587Z,76.29
2022-10-25T16:42:50.058Z,76.59
2022-10-25T16:45:28.098Z,76.50
2022-10-25T16:47:57.039Z,76.50
2022-10-25T16:50:29.686Z,76.89
2022-10-25T16:52:59.653Z,76.83
2022-10-25T16:55:29.084Z,76.86
2022-10-25T16:57:59.320Z,76.69
2022-10-25T17:00:27.746Z,76.31
2022-10-25T17:02:54.938Z,76.67
2022-10-25T17:05:24.463Z,76.61
2022-10-25T17:07:51.847Z,76.52
2022-10-25T17:10:20.318Z,77.15
2022-10-25T17:12:50.058Z,77.56
2022-10-25T17:15:18.141Z,76.90
2022-10-25T17:17:46.872Z,76.99
2022-10-25T17:20:16.033Z,77.20
2022-10-25T17:22:43.722Z,77.56
2022-10-25T17:25:11.636Z,77.33
2022-10-25T17:27:40.800Z,77.05
2022-10-25T17:30:10.543Z,77.13
2022-10-25T17:32:38.296Z,77.51
2022-10-25T17:35:08.527Z,77.45
2022-10-25T17:37:36.017Z,77.52
2022-10-25T17:40:02.939Z,77.93
2022-10-25T17:42:30.005Z,78.33
2022-10-25T17:44:57.017Z,78.22
2022-10-25T17:47:24.146Z,78.43
2022-10-25T17:49:51.400Z,78.13
2022-10-25T17:52:18.334Z,77.88
2022-10-25T17:54:45.318Z,78.69
2022-10-25T17:57:12.404Z,79.02
2022-10-25T17:59:39.254Z,78.99
2022-10-25T18:02:06.339Z,79.30
2022-10-25T18:04:51.745Z,79.23
2022-10-25T18:07:20.096Z,79.47
2022-10-25T18:09:47.105Z,78.91
2022-10-25T18:12:14.093Z,79.59
2022-10-25T18:14:41.017Z,79.12
2022-10-25T18:17:08.007Z,79.25
2022-10-25T18:19:34.915Z,79.54
2022-10-25T18:22:04.507Z,78.95
2022-10-25T18:24:31.602Z,79.41
2022-10-25T18:26:59.078Z,79.47
2022-10-25T18:29:26.060Z,79.65
2022-10-25T18:31:52.979Z,80.06
2022-10-25T18:34:19.968Z,79.73
2022-10-25T18:36:46.934Z,79.86
2022-10-25T18:39:13.935Z,80.22
2022-10-25T18:41:44.562Z,80.10
2022-10-25T18:44:15.151Z,79.84
2022-10-25T18:46:42.972Z,80.03
2022-10-25T18:49:14.716Z,80.12
2022-10-25T18:51:42.282Z,79.96
2022-10-25T18:54:11.798Z,79.97
2022-10-25T18:56:38.764Z,80.65
2022-10-25T18:59:05.731Z,79.85
2022-10-25T19:01:33.314Z,80.72
2022-10-25T19:04:02.254Z,80.08
2022-10-25T19:06:29.962Z,80.97
2022-10-25T19:08:56.915Z,80.63
2022-10-25T19:11:24.361Z,80.81
2022-10-25T19:13:55.983Z,81.39
2022-10-25T19:16:23.942Z,80.44
2022-10-25T19:18:51.075Z,80.81
2022-10-25T19:21:18.896Z,80.77
2022-10-25T19:23:46.898Z,80.74
2022-10-25T19:26:19.869Z,80.61
2022-10-25T19:28:47.373Z,80.73
2022-10-25T19:31:16.801Z,81.20
2022-10-25T19:33:49.103Z,81.02
2022-10-25T19:36:17.545Z,81.29
2022-10-25T19:38:51.124Z,80.94
2022-10-25T19:41:20.864Z,80.77
2022-10-25T19:43:48.063Z,81.33
2022-10-25T19:46:15.768Z,82.32
2022-10-25T19:48:43.019Z,81.65
2022-10-25T19:51:18.843Z,81.98
2022-10-25T19:53:46.450Z,82.43
2022-10-25T19:56:17.768Z,81.55
2022-10-25T19:58:44.819Z,82.07
2022-10-25T20:01:29.573Z,82.07
2022-10-25T20:03:58.499Z,81.57
2022-10-25T20:06:31.058Z,81.52
2022-10-25T20:08:59.760Z,82.40
2022-10-25T20:11:27.745Z,81.68
2022-10-25T20:13:55.984Z,81.16
2022-10-25T20:16:23.675Z,81.08
2022-10-25T20:18:51.122Z,81.91
2022-10-25T20:21:21.113Z,81.52
2022-10-25T20:23:53.302Z,81.96
2022-10-25T20:26:23.417Z,82.02
2022-10-25T20:28:53.559Z,81.69
2022-10-25T20:31:23.268Z,82.01
2022-10-25T20:33:50.470Z,81.62
2022-10-25T20:36:18.116Z,81.67
2022-10-25T20:38:46.660Z,81.65
2022-10-25T20:41:17.094Z,81.80
2022-10-25T20:44:01.135Z,81.75
2022-10-25T20:46:29.072Z,81.92
2022-10-25T20:48:57.688Z,82.15
2022-10-25T20:51:24.693Z,82.24
2022-10-25T20:53:51.642Z,81.94
2022-10-25T20:56:20.600Z,81.30
2022-10-25T20:58:48.111Z,81.35
2022-10-25T21:01:15.316Z,81.21
2022-10-25T21:03:42.838Z,82.03
2022-10-25T21:06:14.715Z,81.56
2022-10-25T21:08:42.010Z,81.56
2022-10-25T21:11:12.097Z,82.24
2022-10-25T21:13:39.200Z,82.19
2022-10-25T21:16:14.744Z,82.40
2022-10-25T21:18:42.750Z,81.77
2022-10-25T21:21:15.831Z,82.11
2022-10-25T21:23:42.781Z,82.08
2022-10-25T21:26:10.423Z,82.23
2022-10-25T21:28:39.525Z,82.08
2022-10-25T21:31:17.015Z,81.87
2022-10-25T21:33:50.117Z,82.41
2022-10-25T21:36:19.401Z,82.04
2022-10-25T21:38:46.444Z,81.71
2022-10-25T21:41:20.991Z,82.17
2022-10-25T21:43:49.534Z,81.76
2022-10-25T21:46:18.308Z,82.36
2022-10-25T21:48:47.526Z,82.39
2022-10-25T21:51:15.227Z,82.39
2022-10-25T21:53:42.266Z,82.62
2022-10-25T21:56:12.390Z,82.88
2022-10-25T21:58:40.564Z,82.77
2022-10-25T22:01:12.731Z,82.24
2022-10-25T22:03:40.681Z,82.24
2022-10-25T22:06:09.386Z,82.23
2022-10-25T22:08:36.799Z,82.57
2022-10-25T22:11:11.309Z,82.76
2022-10-25T22:13:38.302Z,82.79
2022-10-25T22:16:11.415Z,82.59
2022-10-25T22:18:39.693Z,82.46
2022-10-25T22:21:09.214Z,82.60
2022-10-25T22:23:36.433Z,82.66
2022-10-25T22:26:06.910Z,82.89
2022-10-25T22:28:40.765Z,82.91
2022-10-25T22:31:12.911Z,82.46
2022-10-25T22:33:41.004Z,82.38
2022-10-25T22:36:13.254Z,82.98
2022-10-25T22:38:40.490Z,82.74
2022-10-25T22:41:16.048Z,83.06
2022-10-25T22:43:43.555Z,83.10
2022-10-25T22:46:17.083Z,82.78
2022-10-25T22:48:45.464Z,82.85
2022-10-25T22:51:12.917Z,82.70
2022-10-25T22:53:40.367Z,82.75
2022-10-25T23:06:31.085Z,82.83
2022-10-25T23:09:00.297Z,82.41
2022-10-25T23:11:29.524Z,83.00
2022-10-25T23:14:02.015Z,82.90
2022-10-25T23:16:29.552Z,83.14
2022-10-25T23:18:57.319Z,83.10
2022-10-25T23:21:26.703Z,83.29
2022-10-25T23:23:54.746Z,83.40
2022-10-25T23:26:23.022Z,83.86
2022-10-25T23:28:50.635Z,83.51
2022-10-25T23:31:18.054Z,83.36
2022-10-25T23:33:45.707Z,83.67
2022-10-25T23:36:15.902Z,83.74
2022-10-25T23:38:43.568Z,83.27
2022-10-25T23:41:10.718Z,83.30
2022-10-25T23:43:38.070Z,83.34
2022-10-25T23:46:06.368Z,83.00
2022-10-25T23:48:33.867Z,83.30
2022-10-25T23:51:06.775Z,83.17
2022-10-25T23:53:34.664Z,83.66
2022-10-25T23:56:03.355Z,83.50
2022-10-25T23:58:30.362Z,83.24
